Flight Track Log - Related Links

Times and Time Zones

All times are in EDT time to prevent confusion due to time zone crossing. See the AVN10 flight status page for this flight to view local times or setup timezone preferences in your user account.

Time Position Orientation Groundspeed Altitude Reporting Facility
EDT Latitude Longitude Course Direction KTS MPH feet Rate Location/Type
Thu 04:08:00 PM -17.9558 168.0438 226° Southwest  Level FlightAware Approximate
Thu 04:09:00 PM -18.0413 167.9516 226° Southwest  Level FlightAware Approximate
Thu 04:10:00 PM -18.1266 167.8594 226° Southwest  Level FlightAware Approximate
Thu 04:11:00 PM -18.2120 167.7670 226° Southwest  Level FlightAware Approximate
Thu 04:12:00 PM -18.2973 167.6746 226° Southwest  Level FlightAware Approximate
Thu 04:13:00 PM -18.3825 167.5820 226° Southwest  Level FlightAware Approximate
Thu 04:14:00 PM -18.4677 167.4894 226° Southwest  Level FlightAware Approximate
Thu 04:15:00 PM -18.5529 167.3967 226° Southwest  Level FlightAware Approximate
Thu 04:16:00 PM -18.6380 167.3039 226° Southwest  Level FlightAware Approximate
Thu 04:17:00 PM -18.7230 167.2110 226° Southwest  Level FlightAware Approximate
Thu 04:18:00 PM -18.8080 167.1180 226° Southwest  Level FlightAware Approximate
Thu 04:19:00 PM -18.8930 167.0249 226° Southwest  Level FlightAware Approximate
Thu 04:20:00 PM -18.9779 166.9317 226° Southwest  Level FlightAware Approximate
Thu 04:21:00 PM -19.0628 166.8384 226° Southwest  Level FlightAware Approximate
Thu 04:22:00 PM -19.1476 166.7450 226° Southwest  Level FlightAware Approximate
Thu 04:23:00 PM -19.2324 166.6516 226° Southwest  Level FlightAware Approximate
Thu 04:24:00 PM -19.3172 166.5580 226° Southwest  Level FlightAware Approximate
Thu 04:25:00 PM -19.4018 166.4643 226° Southwest  Level FlightAware Approximate
Thu 04:26:00 PM -19.4865 166.3706 226° Southwest  Level FlightAware Approximate
Thu 04:27:00 PM -19.5711 166.2767 226° Southwest  Level FlightAware Approximate
Thu 04:28:00 PM -19.6556 166.1828 226° Southwest  Level FlightAware Approximate
Thu 04:29:00 PM -19.7401 166.0887 226° Southwest  Level FlightAware Approximate
Thu 04:30:00 PM -19.8246 165.9945 226° Southwest  Level FlightAware Approximate
Thu 04:31:00 PM -19.9090 165.9003 226° Southwest  Level FlightAware Approximate
Thu 04:32:00 PM -19.9933 165.8059 226° Southwest  Level FlightAware Approximate
Thu 04:33:00 PM -20.0776 165.7115 226° Southwest  Level FlightAware Approximate
Thu 04:34:00 PM -20.1618 165.6169 226° Southwest  Level FlightAware Approximate
Thu 04:35:00 PM -20.2460 165.5222 227° Southwest  Level FlightAware Approximate
Thu 04:36:00 PM -20.3302 165.4275 227° Southwest  Level FlightAware Approximate
Thu 04:37:00 PM -20.4143 165.3326 227° Southwest  Level FlightAware Approximate
Thu 04:38:00 PM -20.4983 165.2376 227° Southwest  Level FlightAware Approximate
Thu 04:39:00 PM -20.5823 165.1425 227° Southwest  Level FlightAware Approximate
Thu 04:40:00 PM -20.6663 165.0473 227° Southwest  Level FlightAware Approximate
Thu 04:41:00 PM -20.7501 164.9521 227° Southwest  Level FlightAware Approximate
Thu 04:42:00 PM -20.8340 164.8567 227° Southwest  Level FlightAware Approximate
Thu 04:43:00 PM -20.9177 164.7612 227° Southwest  Level FlightAware Approximate
Thu 04:44:00 PM -21.0015 164.6656 227° Southwest  Level FlightAware Approximate
Thu 04:45:00 PM -21.0851 164.5699 227° Southwest  Level FlightAware Approximate
Thu 04:46:00 PM -21.1688 164.4740 227° Southwest  Level FlightAware Approximate
Thu 04:47:00 PM -21.2523 164.3781 227° Southwest  Level FlightAware Approximate
Thu 04:48:00 PM -21.3358 164.2821 227° Southwest  Level FlightAware Approximate
Thu 04:49:00 PM -21.4193 164.1859 227° Southwest  Level FlightAware Approximate
Thu 04:50:00 PM -21.5027 164.0896 227° Southwest  Level FlightAware Approximate
Thu 04:51:00 PM -21.5861 163.9933 227° Southwest  Level FlightAware Approximate
Thu 04:52:00 PM -21.6693 163.8968 227° Southwest  Level FlightAware Approximate
Thu 04:53:00 PM -21.7526 163.8002 227° Southwest  Level FlightAware Approximate
Thu 04:54:00 PM -21.8358 163.7035 227° Southwest  Level FlightAware Approximate
Thu 04:55:00 PM -21.9189 163.6067 227° Southwest  Level FlightAware Approximate
Thu 04:55:03 PM -22.0021 163.5094 219° Southwest 30,000  Level Aus ATC (Calculated)
Thu 04:57:00 PM -22.1615 163.3230 227° Southwest  Level FlightAware Approximate
Thu 04:58:00 PM -22.2431 163.2273 227° Southwest  Level FlightAware Approximate
Thu 04:58:03 PM -22.2481 163.2214 219° Southwest 30,000  Level Aus ATC (Calculated)
Thu 04:59:00 PM -22.3223 163.1342 219° Southwest 30,000 119 Level Aus ATC (Calculated)
Thu 05:00:00 PM -22.4038 163.0382 227° Southwest  Level FlightAware Approximate
Thu 05:01:00 PM -22.4853 162.9421 227° Southwest  Level FlightAware Approximate
Thu 05:02:00 PM -22.5666 162.8459 227° Southwest  Level FlightAware Approximate
Thu 05:02:00 PM -22.5735 162.8378 218° Southwest 30,000  Level Aus ATC (Calculated)
Thu 05:03:00 PM -22.6544 162.7420 228° Southwest  Level FlightAware Approximate
Thu 05:04:00 PM -22.7353 162.6460 228° Southwest  Level FlightAware Approximate
Thu 05:05:00 PM -22.8161 162.5500 228° Southwest  Level FlightAware Approximate
Thu 05:06:00 PM -22.8968 162.4538 228° Southwest  Level FlightAware Approximate
Thu 05:07:00 PM -22.9775 162.3575 228° Southwest  Level FlightAware Approximate
Thu 05:08:00 PM -23.0581 162.2611 228° Southwest  Level FlightAware Approximate
Thu 05:09:00 PM -23.1387 162.1646 228° Southwest  Level FlightAware Approximate
Thu 05:10:00 PM -23.2192 162.0680 228° Southwest  Level FlightAware Approximate
Thu 05:10:27 PM -23.2737 162.0025 217° Southwest 30,000  Level Aus ATC (Calculated)
Thu 05:12:00 PM -23.3983 161.8524 228° Southwest  Level FlightAware Approximate
Thu 05:13:00 PM -23.4786 161.7553 228° Southwest  Level FlightAware Approximate
Thu 05:14:00 PM -23.5588 161.6582 228° Southwest  Level FlightAware Approximate
Thu 05:15:00 PM -23.6390 161.5610 228° Southwest  Level FlightAware Approximate
Thu 05:16:00 PM -23.7192 161.4636 228° Southwest  Level FlightAware Approximate
Thu 05:17:00 PM -23.7993 161.3661 228° Southwest  Level FlightAware Approximate
Thu 05:18:00 PM -23.8793 161.2685 228° Southwest  Level FlightAware Approximate
Thu 05:19:00 PM -23.9592 161.1708 228° Southwest  Level FlightAware Approximate
Thu 05:20:00 PM -24.0391 161.0729 228° Southwest  Level FlightAware Approximate
Thu 05:21:00 PM -24.1189 160.9750 228° Southwest  Level FlightAware Approximate
Thu 05:22:00 PM -24.1987 160.8769 228° Southwest  Level FlightAware Approximate
Thu 05:23:00 PM -24.2784 160.7787 228° Southwest  Level FlightAware Approximate
Thu 05:24:00 PM -24.3580 160.6803 228° Southwest  Level FlightAware Approximate
Thu 05:25:00 PM -24.4376 160.5818 228° Southwest  Level FlightAware Approximate
Thu 05:26:00 PM -24.5171 160.4833 228° Southwest  Level FlightAware Approximate
Thu 05:27:00 PM -24.5966 160.3846 228° Southwest  Level FlightAware Approximate
Thu 05:28:00 PM -24.6985 160.3152 212° Southwest  Level FlightAware Approximate
Thu 05:29:00 PM -24.8006 160.2461 212° Southwest  Level FlightAware Approximate
Thu 05:30:00 PM -24.9028 160.1769 212° Southwest  Level FlightAware Approximate
Thu 05:31:00 PM -25.0048 160.1075 212° Southwest  Level FlightAware Approximate
Thu 05:32:00 PM -25.1069 160.0381 212° Southwest  Level FlightAware Approximate
Thu 05:33:00 PM -25.2089 159.9685 212° Southwest  Level FlightAware Approximate
Thu 05:34:00 PM -25.3109 159.8988 212° Southwest  Level FlightAware Approximate
Thu 05:34:00 PM -25.4825 159.7812 212° Southwest 30,000  Level Aus ATC (Calculated)
Thu 05:35:00 PM -25.5844 159.7112 212° Southwest  Level FlightAware Approximate
Thu 05:35:37 PM -25.6298 159.6800 212° Southwest 30,000  Level Aus ATC (Calculated)
Thu 05:36:00 PM -25.6843 159.6425 212° Southwest  Level FlightAware Approximate
Thu 05:37:00 PM -25.7679 159.5849 212° Southwest  Level FlightAware Approximate
Thu 05:38:00 PM -25.8676 159.5159 212° Southwest  Level FlightAware Approximate
Thu 05:39:00 PM -25.9673 159.4469 212° Southwest  Level FlightAware Approximate
Thu 05:39:11 PM -26.0221 159.4089 212° Southwest 30,000  Level Aus ATC (Calculated)
Thu 05:41:00 PM -26.2031 159.2831 212° Southwest  Level FlightAware Approximate
Thu 05:42:00 PM -26.3028 159.2137 212° Southwest  Level FlightAware Approximate
Thu 05:43:00 PM -26.4023 159.1441 212° Southwest  Level FlightAware Approximate
Thu 05:44:00 PM -26.5019 159.0744 212° Southwest  Level FlightAware Approximate
Thu 05:45:00 PM -26.6014 159.0046 212° Southwest  Level FlightAware Approximate
Thu 05:46:00 PM -26.7009 158.9347 212° Southwest  Level FlightAware Approximate
Thu 05:47:00 PM -26.8003 158.8647 212° Southwest  Level FlightAware Approximate
Thu 05:48:00 PM -26.8997 158.7945 212° Southwest  Level FlightAware Approximate
Thu 05:49:00 PM -26.9991 158.7242 212° Southwest  Level FlightAware Approximate
Thu 05:50:00 PM -27.0984 158.6538 212° Southwest  Level FlightAware Approximate
Thu 05:51:00 PM -27.1978 158.5833 212° Southwest  Level FlightAware Approximate
Thu 05:52:00 PM -27.2970 158.5126 212° Southwest  Level FlightAware Approximate
Thu 05:53:00 PM -27.3963 158.4418 212° Southwest  Level FlightAware Approximate
Thu 05:54:00 PM -27.4955 158.3709 212° Southwest  Level FlightAware Approximate
Thu 05:54:49 PM -27.7319 158.2013 39° Northeast 30,000  Level Aus ATC (Calculated)
Thu 05:56:00 PM -27.8560 158.1119 212° Southwest  Level FlightAware Approximate
Thu 05:56:49 PM -27.9266 158.0609 33° Northeast 30,000  Level Aus ATC (Calculated)
Thu 05:57:00 PM -27.9608 158.0362 213° Southwest  Level FlightAware Approximate
Thu 05:58:00 PM -28.0506 157.9712 213° Southwest  Level FlightAware Approximate
Thu 05:58:29 PM -28.1212 157.9200 33° Northeast 30,000  Level Aus ATC (Calculated)
Thu 05:58:49 PM -28.1212 157.9200 33° Northeast 30,000 1,218 Level Aus ATC (Calculated)
Thu 06:00:00 PM -28.2451 157.8300 213° Southwest  Level FlightAware Approximate
Thu 06:01:00 PM -28.3497 157.7538 213° Southwest  Level FlightAware Approximate
Thu 06:02:00 PM -28.4544 157.6774 213° Southwest  Level FlightAware Approximate
Thu 06:03:00 PM -28.5590 157.6008 213° Southwest  Level FlightAware Approximate
Thu 06:03:23 PM -28.6554 157.5300 33° Northeast 30,000  Level Aus ATC (Calculated)
Thu 06:05:00 PM -28.8243 157.4057 213° Southwest  Level FlightAware Approximate
Thu 06:05:03 PM -27.7197 158.2126 213° Southwest 421 484 38,000  Level Aus ATC (RADAR)
Thu 06:05:38 PM -27.7756 158.1695 214° Southwest 428 493 38,000 -560 Level Aus ATC (RADAR)
Thu 06:06:18 PM -27.8429 158.1207 213° Southwest 428 493 37,300 -1,040 Descending Aus ATC (RADAR)
Thu 06:06:53 PM -27.9030 158.0792 211° Southwest 430 495 36,700 -960 Descending Aus ATC (RADAR)
Thu 06:07:58 PM -28.0098 158.0009 213° Southwest 425 489 35,700 -933 Descending Aus ATC (RADAR)
Thu 06:08:23 PM -28.0515 157.9703 213° Southwest 427 491 35,300 -1,067 Descending Aus ATC (RADAR)
Thu 06:08:43 PM -28.0854 157.9461 212° Southwest 429 494 34,900 -982 Descending Aus ATC (RADAR)
Thu 06:09:18 PM -28.1439 157.9029 213° Southwest 432 497 34,400 -720 Descending Aus ATC (RADAR)
Thu 06:09:58 PM -28.2135 157.8536 212° Southwest 437 503 34,000 -738 Descending Aus ATC (RADAR)
Thu 06:10:23 PM -28.2569 157.8221 213° Southwest 442 509 33,600 -1,015 Descending Aus ATC (RADAR)
Thu 06:11:03 PM -28.3250 157.7718 213° Southwest 440 506 32,900 -987 Descending Aus ATC (RADAR)
Thu 06:11:42 PM -28.3926 157.7213 213° Southwest 439 505 32,300 -973 Descending Aus ATC (RADAR)
Thu 06:12:17 PM -28.4545 157.6769 212° Southwest 446 513 31,700 -1,011 Descending Aus ATC (RADAR)
Thu 06:13:17 PM -28.5591 157.5998 213° Southwest 449 517 30,700 -933 Descending Aus ATC (RADAR)
Thu 06:13:47 PM -28.6128 157.5609 212° Southwest 452 520 30,300 -646 Descending Aus ATC (RADAR)
Thu 06:14:22 PM -28.6754 157.5151 213° Southwest 456 525 30,000 -257 Descending Aus ATC (RADAR)
Thu 06:14:57 PM -28.7381 157.4695 213° Southwest 458 527 30,000  Level Aus ATC (RADAR)
Thu 06:15:37 PM -28.8090 157.4174 213° Southwest 456 525 30,000  Level Aus ATC (RADAR)
Thu 06:16:12 PM -28.8711 157.3718 213° Southwest 455 524 30,000  Level Aus ATC (RADAR)
Thu 06:16:47 PM -28.9326 157.3266 213° Southwest 454 522 30,000  Level Aus ATC (RADAR)
Thu 06:17:17 PM -28.9849 157.2875 213° Southwest 452 520 30,000  Level Aus ATC (RADAR)
Thu 06:18:22 PM -29.0990 157.2032 213° Southwest 453 521 30,000  Level Aus ATC (RADAR)
Thu 06:18:52 PM -29.1526 157.1637 213° Southwest 455 524 30,000  Level Aus ATC (RADAR)
Thu 06:19:27 PM -29.2137 157.1179 213° Southwest 453 521 30,000  Level Aus ATC (RADAR)
Thu 06:20:12 PM -29.2918 157.0596 213° Southwest 449 517 30,000 228 Level Aus ATC (RADAR)
Thu 06:20:46 PM -29.3537 157.0135 213° Southwest 452 520 30,300 214 Climbing Aus ATC (RADAR)
Thu 06:21:36 PM -29.4415 156.9478 213° Southwest 452 520 30,300  Level Aus ATC (RADAR)
Thu 06:22:01 PM -29.4856 156.9148 213° Southwest 454 522 30,300  Level Aus ATC (RADAR)
Thu 06:23:16 PM -29.6186 156.8153 213° Southwest 458 527 30,300  Level Aus ATC (RADAR)
Thu 06:23:41 PM -29.6617 156.7827 213° Southwest 457 526 30,300  Level Aus ATC (RADAR)
Thu 06:24:06 PM -29.7056 156.7496 213° Southwest 454 522 30,300  Level Aus ATC (RADAR)
Thu 06:24:41 PM -29.7671 156.7032 213° Southwest 454 522 30,300 -141 Level Aus ATC (RADAR)
Thu 06:25:31 PM -29.8555 156.6366 213° Southwest 456 525 30,100  Descending Aus ATC (RADAR)
Thu 06:26:01 PM -29.9083 156.5965 213° Southwest 456 525 30,300 150 Climbing Aus ATC (RADAR)
Thu 06:26:51 PM -29.9970 156.5291 213° Southwest 458 527 30,300  Level Aus ATC (RADAR)
Thu 06:27:21 PM -30.0503 156.4886 213° Southwest 459 528 30,300  Level Aus ATC (RADAR)
Thu 06:28:31 PM -30.1752 156.3944 213° Southwest 460 529 30,300 -126 Level Aus ATC (RADAR)
Thu 06:28:56 PM -30.2194 156.3606 213° Southwest 459 528 30,100 -185 Descending Aus ATC (RADAR)
Thu 06:29:36 PM -30.2893 156.3070 214° Southwest 454 522 30,100  Level Aus ATC (RADAR)
Thu 06:30:16 PM -30.3597 156.2530 214° Southwest 456 525 30,100  Level Aus ATC (RADAR)
Thu 06:30:55 PM -30.4301 156.1990 213° Southwest 457 526 30,100  Level Aus ATC (RADAR)
Thu 06:31:25 PM -30.4830 156.1585 213° Southwest 457 526 30,100  Level Aus ATC (RADAR)
Thu 06:31:55 PM -30.5360 156.1177 214° Southwest 458 527 30,100  Level Aus ATC (RADAR)
Thu 06:32:30 PM -30.5978 156.0703 213° Southwest 458 527 30,100  Level Aus ATC (RADAR)
Thu 06:33:40 PM -30.7215 155.9750 213° Southwest 459 528 30,100  Level Aus ATC (RADAR)
Thu 06:34:05 PM -30.7653 155.9411 214° Southwest 457 526 30,100  Level Aus ATC (RADAR)
Thu 06:34:40 PM -30.8266 155.8937 214° Southwest 455 524 30,100  Level Aus ATC (RADAR)
Thu 06:35:30 PM -30.9221 155.8398 206° Southwest 459 528 30,100  Level Aus ATC (RADAR)
Thu 06:36:05 PM -30.9888 155.8027 206° Southwest 458 527 30,100  Level Aus ATC (RADAR)
Thu 06:37:00 PM -31.0934 155.7441 206° Southwest 457 526 30,100  Level Aus ATC (RADAR)
Thu 06:37:15 PM -31.1223 155.7280 206° Southwest 458 527 30,100  Level Aus ATC (RADAR)
Thu 06:38:15 PM -31.2381 155.6632 206° Southwest 463 533 30,100  Level Aus ATC (RADAR)
Thu 06:38:50 PM -31.3057 155.6253 206° Southwest 464 534 30,100  Level Aus ATC (RADAR)
Thu 06:39:04 PM -31.3349 155.6089 206° Southwest 465 535 30,100  Level Aus ATC (RADAR)
Thu 06:39:39 PM -31.4027 155.5707 206° Southwest 465 535 30,100  Level Aus ATC (RADAR)
Thu 06:40:29 PM -31.4997 155.5159 206° Southwest 466 536 30,100  Level Aus ATC (RADAR)
Thu 06:41:04 PM -31.5679 155.4774 206° Southwest 467 537 30,100  Level Aus ATC (RADAR)
Thu 06:41:54 PM -31.6649 155.4224 206° Southwest 466 536 30,100  Level Aus ATC (RADAR)
Thu 06:42:14 PM -31.7038 155.4000 206° Southwest 467 537 30,100  Level Aus ATC (RADAR)
Thu 06:42:44 PM -31.7620 155.3672 206° Southwest 466 536 30,100  Level Aus ATC (RADAR)
Thu 06:43:44 PM -31.8785 155.3008 206° Southwest 467 537 30,100  Level Aus ATC (RADAR)
Thu 06:44:04 PM -31.9169 155.2790 206° Southwest 465 535 30,100  Level Aus ATC (RADAR)
Thu 06:44:39 PM -31.9852 155.2402 206° Southwest 467 537 30,100 -162 Level Aus ATC (RADAR)
Thu 06:44:41 PM -32.0403 155.2086 206° Southwest 468 539 30,000 -188 Descending FlightAware ADS-B (YPLB)
Thu 06:45:11 PM -32.1002 155.1744 205° Southwest 469 540 30,000 140 Level FlightAware ADS-B (YPLB)
Thu 06:45:24 PM -32.0727 155.1902 206° Southwest 468 539 30,100  Climbing Aus ATC (RADAR)
Thu 06:45:50 PM -32.1775 155.1300 206° Southwest 469 540 30,000  Descending FlightAware ADS-B (YPLB)
Thu 06:46:04 PM -32.1506 155.1455 205° Southwest 468 539 30,100  Climbing Aus ATC (RADAR)
Thu 06:46:22 PM -32.2391 155.0945 206° Southwest 470 541 30,000  Descending FlightAware ADS-B (YPLB)
Thu 06:47:14 PM -32.2871 155.0670 206° Southwest 468 539 30,100  Climbing Aus ATC (RADAR)
Thu 06:47:22 PM -32.3556 155.0274 206° Southwest 471 542 30,000 -158 Descending FlightAware ADS-B (YPLB)
Thu 06:47:52 PM -32.4155 154.9929 206° Southwest 473 544 30,000 188 Level FlightAware ADS-B (YPLB)
Thu 06:47:54 PM -32.3656 155.0215 206° Southwest 471 542 30,100  Climbing Aus ATC (RADAR)
Thu 06:48:22 PM -32.4745 154.9590 206° Southwest 474 545 30,000 -103 Descending FlightAware ADS-B (YPLB)
Thu 06:48:52 PM -32.5335 154.9248 206° Southwest 474 545 30,000  Level FlightAware ADS-B (YPLB)
Thu 06:49:33 PM -32.6115 154.8794 206° Southwest 476 548 30,000 98 Level FlightAware ADS-B (YPLB)
Thu 06:49:53 PM -32.6017 154.8849 206° Southwest 476 548 30,100  Climbing Aus ATC (RADAR)
Thu 06:50:03 PM -32.6741 154.8430 206° Southwest 478 550 30,000  Descending FlightAware ADS-B (YPLB)
Thu 06:50:33 PM -32.6805 154.8391 206° Southwest 476 548 30,100  Climbing Aus ATC (RADAR)
Thu 06:50:43 PM -32.7536 154.7968 206° Southwest 479 551 30,000 -120 Descending FlightAware ADS-B (YPLB)
Thu 06:51:23 PM -32.8338 154.7502 206° Southwest 479 551 30,000 100 Level FlightAware ADS-B (YPLB)
Thu 06:51:43 PM -32.8195 154.7582 206° Southwest 476 548 30,100  Climbing Aus ATC (RADAR)
Thu 06:52:12 PM -32.9323 154.6927 206° Southwest 479 551 30,000  Descending FlightAware ADS-B (YPLB)
Thu 06:52:28 PM -32.9084 154.7064 206° Southwest 477 549 30,100  Climbing Aus ATC (RADAR)
Thu 06:52:42 PM -32.9929 154.6571 206° Southwest 480 552 30,000  Descending FlightAware ADS-B (YPLB)
Thu 06:53:03 PM -32.9776 154.6652 206° Southwest 478 550 30,100  Climbing Aus ATC (RADAR)
Thu 06:53:44 PM -33.1132 154.5865 206° Southwest 483 556 30,000  Descending FlightAware ADS-B (YPLB)
Thu 06:54:13 PM -33.1177 154.5834 206° Southwest 483 556 30,100  Climbing Aus ATC (RADAR)
Thu 06:54:23 PM -33.1928 154.5397 206° Southwest 484 557 30,000  Descending FlightAware ADS-B (YPLB)
Thu 06:54:33 PM -33.1582 154.5600 206° Southwest 486 559 30,100  Climbing Aus ATC (RADAR)
Thu 06:55:02 PM -33.2728 154.4925 206° Southwest 483 556 30,000  Descending FlightAware ADS-B (YPLB)
Thu 06:55:08 PM -33.2284 154.5185 206° Southwest 486 559 30,100  Climbing Aus ATC (RADAR)
Thu 06:55:34 PM -33.3365 154.4550 206° Southwest 482 555 30,000  Descending FlightAware ADS-B (YPLB)
Thu 06:55:53 PM -33.3180 154.4655 206° Southwest 482 555 30,100 113 Climbing Aus ATC (RADAR)
Thu 06:56:27 PM -33.3878 154.4241 206° Southwest 481 554 30,100 -146 Level Aus ATC (RADAR)
Thu 06:56:34 PM -33.4557 154.3842 206° Southwest 482 555 30,000 -122 Descending FlightAware ADS-B (YPLB)
Thu 06:57:16 PM -33.5380 154.3353 206° Southwest 482 555 30,000 95 Level FlightAware ADS-B (YPLB)
Thu 06:57:37 PM -33.5283 154.3410 206° Southwest 485 558 30,100  Climbing Aus ATC (RADAR)
Thu 06:57:55 PM -33.6170 154.2883 206° Southwest 482 555 30,000  Descending FlightAware ADS-B (YPLB)
Thu 06:58:12 PM -33.5978 154.2994 206° Southwest 482 555 30,100  Climbing Aus ATC (RADAR)
Thu 06:58:34 PM -33.6958 154.2413 206° Southwest 482 555 30,000 -113 Descending FlightAware ADS-B (YPLB)
Thu 06:59:05 PM -33.7587 154.2038 206° Southwest 483 556 30,000 113 Level FlightAware ADS-B (YPLB)
Thu 06:59:27 PM -33.7481 154.2101 206° Southwest 485 558 30,100  Climbing Aus ATC (RADAR)
Thu 06:59:35 PM -33.8198 154.1674 206° Southwest 483 556 30,000  Descending FlightAware ADS-B (YPLB)
Thu 06:59:54 PM -33.8004 154.1789 206° Southwest 475 547 30,100  Climbing Aus ATC (RADAR)
Thu 07:00:07 PM -33.8774 154.1249 222° Southwest 471 542 30,000 -200 Descending FlightAware ADS-B (YPLB)
Thu 07:00:24 PM -33.9001 154.0900 239° Southwest 458 527 30,000 273 Level FlightAware ADS-B (YPLB)
Thu 07:00:29 PM -33.8702 154.1351 206° Southwest 480 552 30,100  Climbing Aus ATC (RADAR)
Thu 07:00:46 PM -33.9157 154.0373 258° West 442 509 30,000 -125 Descending FlightAware ADS-B (YPLB)
Thu 07:01:17 PM -33.9248 153.9627 261° West 440 506 30,000 95 Level FlightAware ADS-B (YPLB)
Thu 07:01:49 PM -33.9257 153.9524 261° West 426 490 30,100 92 Climbing Aus ATC (RADAR)
Thu 07:02:22 PM -33.9349 153.8709 262° West 435 501 30,100 -94 Level Aus ATC (RADAR)
Thu 07:02:53 PM -33.9439 153.8000 262° West 441 507 30,000 -64 Descending FlightAware ADS-B (KCLL)
Thu 07:03:56 PM -33.9605 153.6577 262° West 439 505 30,000 57 Level FlightAware ADS-B (KCLL)
Thu 07:04:39 PM -33.9740 153.5412 262° West 420 483 30,100  Climbing Aus ATC (RADAR)
Thu 07:04:49 PM -33.9759 153.5238 262° West 439 505 30,000 -146 Descending FlightAware ADS-B (KCLL)
Thu 07:05:20 PM -33.9928 153.3764 262° West 440 506 30,000 140 Level FlightAware ADS-B (YPLB)
Thu 07:05:32 PM -33.9881 153.4114 262° West 433 498 30,100  Climbing Aus ATC (RADAR)
Thu 07:06:17 PM -34.0087 153.2355 262° West 441 507 30,000  Descending FlightAware ADS-B (YPLB)
Thu 07:06:18 PM -34.0016 153.2990 262° West 422 486 30,100  Climbing Aus ATC (RADAR)
Thu 07:06:56 PM -34.0112 153.2129 262° West 441 507 30,000  Descending FlightAware ADS-B (KCLL)
Thu 07:07:41 PM -34.0240 153.0962 262° West 436 502 30,100  Climbing Aus ATC (RADAR)
Thu 07:07:56 PM -34.0282 153.0600 263° West 442 509 30,000 -1,040 Descending FlightAware ADS-B (KCLL)
Thu 07:08:56 PM -34.0442 152.9161 262° West 425 489 28,800 -1,485 Descending FlightAware ADS-B (KCLL)
Thu 07:09:33 PM -34.0535 152.8319 262° West 409 471 27,600 -2,237 Descending Aus ATC (RADAR)
Thu 07:09:55 PM -34.0587 152.7816 263° West 410 472 26,600 -2,190 Descending FlightAware ADS-B (KCLL)
Thu 07:10:36 PM -34.0689 152.6886 263° West 405 466 25,300 -2,066 Descending Aus ATC (RADAR)
Thu 07:10:56 PM -34.0735 152.6449 263° West 398 458 24,500 -4,000 Descending FlightAware ADS-B (KCLL)
Thu 07:11:21 PM -34.0793 152.5334 274° West 398 458 22,300 -1,688 Descending FlightAware ADS-B (YPLB)
Thu 07:11:28 PM -34.0807 152.5761 263° West 386 444 23,600 -1,200 Climbing Aus ATC (RADAR)
Thu 07:11:56 PM -34.0774 152.5134 277° West 405 466 21,600 -2,897 Descending FlightAware ADS-B (KCLL)
Thu 07:12:55 PM -34.0657 152.3874 277° West 389 448 19,400 -1,650 Descending FlightAware ADS-B (KCLL)
Thu 07:13:56 PM -34.0536 152.2634 277° West 358 412 18,300 -1,188 Descending FlightAware ADS-B (KCLL)
Thu 07:14:31 PM -34.0486 152.2119 277° West 353 406 17,500 -1,171 Descending FlightAware ADS-B
Thu 07:15:18 PM -34.0376 152.1019 277° West 332 382 16,700 -1,222 Descending Aus ATC (RADAR)
Thu 07:15:25 PM -34.0486 152.2119 277° West 310 357 16,400 -1,105 Descending FlightAware ADS-B
Thu 07:15:56 PM -34.0314 152.0349 276° West 311 358 16,000 -1,959 Descending Aus ATC (RADAR)
Thu 07:16:14 PM -34.0235 151.9579 277° West 310 357 14,800 -1,459 Descending FlightAware ADS-B (YPLB)
Thu 07:16:33 PM -34.0249 151.9724 277° West 303 349 15,100 -571 Climbing Aus ATC (RADAR)
Thu 07:16:56 PM -34.0210 151.9311 277° West 311 358 14,400 -1,663 Descending FlightAware ADS-B (KCLL)
Thu 07:17:56 PM -34.0107 151.8285 277° West 308 354 12,800 -1,537 Descending FlightAware ADS-B (KCLL)
Thu 07:18:57 PM -34.0010 151.7310 277° West 297 342 11,300 -1,516 Descending FlightAware ADS-B (KCLL)
Thu 07:19:31 PM -33.9949 151.6725 277° West 293 337 10,400 -1,556 Descending FlightAware ADS-B
Thu 07:19:51 PM -33.9925 151.6499 277° West 290 334 9,900 -1,500 Descending FlightAware ADS-B
Thu 07:20:11 PM -33.9905 151.6308 277° West 288 331 9,400 -1,400 Descending FlightAware ADS-B
Thu 07:20:51 PM -33.9824 151.5530 277° West 276 318 8,500 -1,200 Descending FlightAware ADS-B
Thu 07:21:11 PM -33.9787 151.5181 278° West 272 313 8,200 -900 Descending FlightAware ADS-B
Thu 07:21:31 PM -33.9755 151.4890 277° West 270 311 7,900 -900 Descending FlightAware ADS-B
Thu 07:21:51 PM -33.9724 151.4600 277° West 269 310 7,600 -900 Descending FlightAware ADS-B
Thu 07:22:11 PM -33.9689 151.4264 277° West 263 303 7,300 -900 Descending FlightAware ADS-B
Thu 07:22:31 PM -33.9699 151.3981 255° West 266 306 7,000 -960 Descending FlightAware ADS-B
Thu 07:22:36 PM -33.9683 151.4196 245° Southwest 268 308 6,900 -900 Descending FlightAware ADS-B (YRAY)
Thu 07:22:51 PM -33.9845 151.3731 221° Southwest 272 313 6,700 -1,000 Descending FlightAware ADS-B
Thu 07:22:54 PM -33.9908 151.3684 211° Southwest 266 306 6,600 -1,500 Descending FlightAware ADS-B (YSSY / SYD)
Thu 07:22:59 PM -33.9897 151.3691 205° Southwest 274 315 6,500 -1,059 Descending FlightAware ADS-B (KCLL)
Thu 07:23:11 PM -34.0064 151.3613 199° South 276 318 6,300 -938 Descending FlightAware ADS-B
Thu 07:23:31 PM -34.0317 151.3510 198° South 276 318 6,000 -1,000 Descending FlightAware ADS-B
Thu 07:23:41 PM -34.0407 151.3488 184° South 276 318 5,800 -900 Descending FlightAware ADS-B
Thu 07:23:51 PM -34.0558 151.3494 171° South 274 315 5,700 -800 Descending FlightAware ADS-B
Thu 07:24:11 PM -34.0814 151.3562 168° South 269 310 5,400 -900 Descending FlightAware ADS-B
Thu 07:24:31 PM -34.0959 151.3600 168° South 265 305 5,100 -900 Descending FlightAware ADS-B
Thu 07:24:51 PM -34.1293 151.3687 168° South 258 297 4,800 -900 Descending FlightAware ADS-B
Thu 07:25:11 PM -34.1514 151.3729 179° South 253 291 4,500 -1,000 Descending FlightAware ADS-B
Thu 07:25:21 PM -34.1619 151.3705 200° South 245 282 4,300 -900 Descending FlightAware ADS-B
Thu 07:25:31 PM -34.1725 151.3630 219° Southwest 238 274 4,200 -900 Descending FlightAware ADS-B
Thu 07:25:41 PM -34.1780 151.3552 239° Southwest 229 264 4,000 -900 Descending FlightAware ADS-B
Thu 07:25:51 PM -34.1826 151.3402 256° West 226 260 3,900 -800 Descending FlightAware ADS-B
Thu 07:26:11 PM -34.1858 151.3207 259° West 225 259 3,600 -800 Descending FlightAware ADS-B
Thu 07:26:21 PM -34.1880 151.3072 259° West 225 259 3,500 -600 Descending FlightAware ADS-B
Thu 07:26:41 PM -34.1902 151.2833 282° West 215 247 3,300 -600 Descending FlightAware ADS-B
Thu 07:26:51 PM -34.1854 151.2692 298° West 207 238 3,200 -706 Descending FlightAware ADS-B
Thu 07:26:58 PM -34.1803 151.2632 321° Northwest 204 235 3,100 -600 Descending FlightAware ADS-B (KCLL)
Thu 07:27:21 PM -34.1643 151.2509 328° Northwest 191 220 2,900 -558 Descending FlightAware ADS-B
Thu 07:27:41 PM -34.1520 151.2420 342° North 180 207 2,700 -486 Descending FlightAware ADS-B
Thu 07:27:58 PM -34.1335 151.2360 347° North 177 204 2,600 -200 Descending FlightAware ADS-B (KCLL)
Thu 07:28:11 PM -34.1264 151.2341 348° North 176 203 2,600  Level FlightAware ADS-B
Thu 07:28:21 PM -34.1167 151.2317 348° North 176 203 2,600 -400 Level FlightAware ADS-B
Thu 07:28:41 PM -34.1013 151.2278 348° North 167 192 2,400 -632 Descending FlightAware ADS-B
Thu 07:28:59 PM -34.0862 151.2238 348° North 164 189 2,200 -900 Descending FlightAware ADS-B (KCLL)
Thu 07:29:21 PM -34.0746 151.2208 348° North 166 191 1,800 -1,000 Descending FlightAware ADS-B
Thu 07:29:29 PM -34.0620 151.2176 347° North 153 176 1,700 -800 Descending FlightAware ADS-B (YSSY / SYD)
Thu 07:29:51 PM -34.0492 151.2142 347° North 155 178 1,400 -714 Descending FlightAware ADS-B
Thu 07:30:11 PM -34.0350 151.2105 348° North 143 165 1,200 -600 Descending FlightAware ADS-B
Thu 07:30:31 PM -34.0318 151.2097 348° North 138 159 1,000 -750 Descending FlightAware ADS-B
Thu 07:30:51 PM -34.0113 151.2044 348° North 129 148 700 -800 Descending FlightAware ADS-B
Thu 07:31:01 PM -34.0030 151.2023 347° North 121 139 600 -600 Descending FlightAware ADS-B (YSSY / SYD)
Thu 07:31:21 PM -33.9954 151.2003 347° North 133 153 400 -450 Descending FlightAware ADS-B
Thu 07:31:41 PM -33.9912 151.1992 348° North 134 154 300 -300 Descending FlightAware ADS-B

Login

Don't have an account? Register now (free) for customized features, flight alerts, and more!